ROMMA est une association bénévole à but non lucratif. Votre soutien est indispensable : ADHERER à ROMMA ou FAIRE un DON

Chambon - (38, Isère)

Oisans (2460 m)   Longitude: 06° 10' 42" E   Latitude: 45° 01' 32" N Station partenaire n°803
 

Détail journalier du     <<     >>

Température Humidité Vent Dir Rafale Dir. rafale Neige 1 Neige 2
Heure (°C) (%) (km/h) (km/h) (cm) (cm)
01:00 9.6468NNE17NNE23
02:00 9.8457SO11SO03
03:00 9.5469SO14OSO23
04:00 9.2448OSO18OSO33
05:00 9.14513OSO19OSO23
06:00 8.55413SO19OSO33
07:00 8.4518SO19SO33
08:00 8.6529S26S33
09:00 9.24313S39SSO23
10:00 10.93516SSO37SSO04
11:00 11.83820SSO47SO44
12:00 12.14526SO47SO04
13:00 11.84530SO50OSO04
14:00 11.24834OSO52OSO03
15:00 11.44633OSO51OSO04
16:00 11.84827SO49OSO03
17:00 11.04931SO56OSO03
18:00 9.75733OSO57OSO03
19:00 8.46535OSO60OSO02
20:00 7.97033SO57OSO12
21:00
22:00 2.19716SO34SO04
23:00 2.09323SSO51SSO24
minuit 2.69325SSO47SO03

Graphique du 01-10-2019

 

Serveur OMMA